Time;durP1;ratioP1;P1;durP2;ratioP2;P2;SDS_P1;SDS_P2;PMS_P1;PMS_P2;Temp;Humidity;BMP_temperature;BMP_pressure;BME280_temperature;BME280_humidity;BME280_pressure;Samples;Min_cycle;Max_cycle;Signal;HPM_P1;HPM_P2
2023/07/29 00:00:42;;;;;;;44.45;42.15;;;;;;;;;;5078083;28;20059;-70
2023/07/29 00:03:08;;;;;;;39.15;37.08;;;;;;;;;;5084395;28;20488;-68
2023/07/29 00:05:33;;;;;;;35.65;33.75;;;;;;;;;;5064803;28;20426;-70
2023/07/29 00:07:59;;;;;;;40.70;38.58;;;;;;;;;;5077308;28;20044;-69
2023/07/29 00:10:24;;;;;;;35.67;33.78;;;;;;;;;;5078540;28;20413;-70
2023/07/29 00:12:50;;;;;;;34.85;33.03;;;;;;;;;;5078090;28;20036;-70
2023/07/29 00:15:15;;;;;;;35.75;33.88;;;;;;;;;;5081586;28;20028;-70
2023/07/29 00:17:40;;;;;;;35.33;33.45;;;;;;;;;;5081398;28;20039;-69
2023/07/29 00:20:07;;;;;;;33.88;32.08;;;;;;;;;;5078006;28;20109;-69
2023/07/29 00:22:32;;;;;;;33.47;31.58;;;;;;;;;;5074449;28;20112;-68
2023/07/29 00:24:59;;;;;;;29.48;27.88;;;;;;;;;;5079440;28;20115;-67
2023/07/29 00:27:24;;;;;;;30.48;28.90;;;;;;;;;;5078854;28;20365;-69
2023/07/29 00:29:50;;;;;;;30.15;28.52;;;;;;;;;;5079233;28;20108;-68
2023/07/29 00:32:15;;;;;;;30.45;28.85;;;;;;;;;;5080123;28;20340;-69
2023/07/29 00:34:41;;;;;;;30.25;28.67;;;;;;;;;;5074445;28;20028;-69
2023/07/29 00:37:06;;;;;;;30.75;29.15;;;;;;;;;;5077930;28;20127;-69
2023/07/29 00:39:34;;;;;;;32.38;30.67;;;;;;;;;;5080133;28;20051;-68
2023/07/29 00:41:59;;;;;;;34.08;32.28;;;;;;;;;;5078542;28;20119;-68
2023/07/29 00:44:25;;;;;;;36.95;35.03;;;;;;;;;;5073613;28;20095;-68
2023/07/29 00:46:53;;;;;;;40.40;38.30;;;;;;;;;;5076924;28;20024;-68
2023/07/29 00:49:20;;;;;;;41.65;39.50;;;;;;;;;;5078368;28;20036;-68
2023/07/29 00:51:46;;;;;;;42.45;40.25;;;;;;;;;;5077373;28;20028;-68
2023/07/29 00:54:11;;;;;;;37.58;35.63;;;;;;;;;;5077389;28;20037;-69
2023/07/29 00:56:37;;;;;;;45.22;42.88;;;;;;;;;;5076769;28;20318;-68
2023/07/29 00:59:04;;;;;;;40.97;38.75;;;;;;;;;;5080643;28;20028;-68
2023/07/29 01:01:30;;;;;;;41.00;38.88;;;;;;;;;;5076848;28;20031;-68
2023/07/29 01:03:55;;;;;;;46.35;43.95;;;;;;;;;;5077480;28;20056;-68
2023/07/29 01:06:46;;;;;;;39.97;37.92;;;;;;;;;;5080728;28;20362;-68
2023/07/29 01:09:11;;;;;;;37.75;35.78;;;;;;;;;;5080623;28;20063;-68
2023/07/29 01:11:55;;;;;;;39.95;37.88;;;;;;;;;;5067545;28;20710;-68
2023/07/29 01:14:23;;;;;;;39.88;37.80;;;;;;;;;;5077333;28;20502;-68
2023/07/29 01:16:53;;;;;;;41.95;39.80;;;;;;;;;;5078075;28;20039;-68
2023/07/29 01:19:57;;;;;;;41.42;39.28;;;;;;;;;;5074814;28;20052;-69
2023/07/29 01:22:23;;;;;;;39.78;37.72;;;;;;;;;;5065159;28;20039;-68
2023/07/29 01:24:49;;;;;;;40.85;38.75;;;;;;;;;;5074706;28;20449;-68
2023/07/29 01:27:14;;;;;;;39.65;37.60;;;;;;;;;;5078225;28;20047;-68
2023/07/29 01:29:40;;;;;;;35.53;33.67;;;;;;;;;;5076520;28;20332;-68
2023/07/29 01:32:11;;;;;;;39.03;37.03;;;;;;;;;;5075238;28;20039;-68
2023/07/29 01:34:44;;;;;;;36.05;34.13;;;;;;;;;;5076186;28;20028;-68
2023/07/29 01:37:14;;;;;;;38.85;36.85;;;;;;;;;;5076248;28;20057;-68
2023/07/29 01:39:41;;;;;;;49.88;47.35;;;;;;;;;;5077747;28;20036;-68
2023/07/29 01:42:07;;;;;;;47.30;44.90;;;;;;;;;;5076957;28;20363;-68
2023/07/29 01:44:33;;;;;;;50.05;47.50;;;;;;;;;;5078438;28;20039;-69
2023/07/29 01:46:59;;;;;;;52.00;49.38;;;;;;;;;;5079268;28;20036;-68
2023/07/29 01:49:25;;;;;;;51.60;48.97;;;;;;;;;;5077755;28;20166;-68
2023/07/29 01:51:50;;;;;;;59.25;56.28;;;;;;;;;;5074847;28;20118;-68
2023/07/29 01:54:15;;;;;;;56.60;53.72;;;;;;;;;;5080115;28;20024;-68
2023/07/29 01:56:41;;;;;;;50.78;48.20;;;;;;;;;;5080795;28;20366;-69
2023/07/29 01:59:06;;;;;;;50.75;48.17;;;;;;;;;;5075147;28;20050;-68
2023/07/29 02:01:31;;;;;;;48.33;45.88;;;;;;;;;;5077664;28;20171;-69
2023/07/29 02:03:57;;;;;;;54.85;52.08;;;;;;;;;;5078860;28;20406;-69
2023/07/29 02:06:22;;;;;;;49.13;46.53;;;;;;;;;;5078703;28;20401;-68
2023/07/29 02:08:48;;;;;;;56.38;53.50;;;;;;;;;;5078042;28;20047;-68
2023/07/29 02:11:13;;;;;;;57.22;54.33;;;;;;;;;;5078712;28;20039;-68
2023/07/29 02:13:38;;;;;;;57.40;54.50;;;;;;;;;;5076509;28;20093;-69
2023/07/29 02:16:04;;;;;;;56.30;53.47;;;;;;;;;;5073762;28;20048;-69
2023/07/29 02:18:29;;;;;;;54.90;52.10;;;;;;;;;;5078111;28;20036;-69
2023/07/29 02:20:54;;;;;;;56.58;53.65;;;;;;;;;;5077477;28;20043;-68
2023/07/29 02:23:20;;;;;;;58.22;55.30;;;;;;;;;;5080017;28;20036;-68
2023/07/29 02:25:45;;;;;;;68.38;64.93;;;;;;;;;;5067013;28;20374;-68
2023/07/29 02:28:11;;;;;;;63.90;60.70;;;;;;;;;;5072412;28;20040;-69
2023/07/29 02:30:36;;;;;;;64.35;61.15;;;;;;;;;;5075759;28;20055;-68
2023/07/29 02:33:02;;;;;;;67.85;64.47;;;;;;;;;;5077234;28;20066;-69
2023/07/29 02:35:27;;;;;;;64.35;61.10;;;;;;;;;;5077916;28;20056;-68
2023/07/29 02:37:53;;;;;;;65.78;62.47;;;;;;;;;;5076648;28;20517;-69
2023/07/29 02:40:20;;;;;;;67.57;63.67;;;;;;;;;;5077330;28;20035;-68
2023/07/29 02:42:46;;;;;;;62.33;59.20;;;;;;;;;;5075701;28;20454;-68
2023/07/29 02:45:11;;;;;;;70.95;67.35;;;;;;;;;;5077976;28;20040;-70
2023/07/29 02:47:37;;;;;;;50.47;47.90;;;;;;;;;;5072418;28;20886;-70
2023/07/29 02:50:03;;;;;;;49.35;46.80;;;;;;;;;;5074754;28;20032;-68
2023/07/29 02:52:28;;;;;;;37.60;35.60;;;;;;;;;;5073405;28;20465;-69
2023/07/29 02:54:53;;;;;;;49.90;47.30;;;;;;;;;;5074878;28;20259;-69
2023/07/29 02:57:19;;;;;;;41.85;39.70;;;;;;;;;;5076535;28;20066;-69
2023/07/29 02:59:45;;;;;;;38.38;36.40;;;;;;;;;;5077052;28;20127;-68
2023/07/29 03:02:11;;;;;;;39.38;37.22;;;;;;;;;;5076990;28;20046;-68
2023/07/29 03:04:36;;;;;;;41.17;38.92;;;;;;;;;;5072831;28;20037;-68
2023/07/29 03:07:02;;;;;;;40.38;38.30;;;;;;;;;;5077124;28;20028;-68
2023/07/29 03:09:27;;;;;;;41.33;39.22;;;;;;;;;;5076275;28;20028;-68
2023/07/29 03:11:54;;;;;;;36.63;34.72;;;;;;;;;;5076092;28;20036;-69
2023/07/29 03:14:20;;;;;;;38.10;36.10;;;;;;;;;;5077705;28;20486;-67
2023/07/29 03:16:46;;;;;;;42.50;40.33;;;;;;;;;;5076514;28;20044;-68
2023/07/29 03:19:12;;;;;;;40.50;38.40;;;;;;;;;;5078310;28;20036;-69
2023/07/29 03:21:37;;;;;;;38.55;36.53;;;;;;;;;;5074646;28;20501;-68
2023/07/29 03:24:03;;;;;;;35.22;33.38;;;;;;;;;;5075845;28;20032;-68
2023/07/29 03:26:28;;;;;;;38.75;36.75;;;;;;;;;;5074432;28;20628;-68
2023/07/29 03:28:53;;;;;;;37.20;35.22;;;;;;;;;;5079411;28;20078;-68
2023/07/29 03:31:19;;;;;;;36.17;34.30;;;;;;;;;;5074828;28;20066;-68
2023/07/29 03:33:44;;;;;;;32.88;31.17;;;;;;;;;;5075189;28;20024;-68
2023/07/29 03:36:09;;;;;;;31.80;30.10;;;;;;;;;;5076040;28;20043;-68
2023/07/29 03:38:39;;;;;;;34.08;32.33;;;;;;;;;;5075426;28;20044;-68
2023/07/29 03:41:04;;;;;;;33.70;31.93;;;;;;;;;;5075632;28;20542;-68
2023/07/29 03:43:30;;;;;;;33.85;32.10;;;;;;;;;;5073086;28;20119;-68
2023/07/29 03:45:55;;;;;;;31.65;30.00;;;;;;;;;;5074721;28;20059;-68
2023/07/29 03:48:21;;;;;;;31.67;30.02;;;;;;;;;;5074997;28;20050;-68
2023/07/29 03:50:46;;;;;;;33.17;31.17;;;;;;;;;;5073808;28;20354;-68
2023/07/29 03:53:12;;;;;;;31.95;30.15;;;;;;;;;;5074924;28;20100;-68
2023/07/29 03:55:37;;;;;;;31.83;30.20;;;;;;;;;;5073966;28;20056;-68
2023/07/29 03:58:02;;;;;;;31.38;29.67;;;;;;;;;;5076174;28;20083;-68
2023/07/29 04:00:27;;;;;;;34.83;33.03;;;;;;;;;;5073549;28;20063;-68
2023/07/29 04:02:53;;;;;;;30.92;29.33;;;;;;;;;;5074089;28;20129;-68
2023/07/29 04:05:19;;;;;;;29.67;28.08;;;;;;;;;;5075520;28;20040;-68
2023/07/29 04:07:44;;;;;;;33.40;31.67;;;;;;;;;;5073901;28;20043;-68
2023/07/29 04:10:10;;;;;;;30.73;29.13;;;;;;;;;;5076372;28;20085;-68
2023/07/29 04:12:35;;;;;;;34.92;33.13;;;;;;;;;;5076635;28;20470;-68
2023/07/29 04:15:01;;;;;;;31.40;29.73;;;;;;;;;;5072975;28;20363;-68
2023/07/29 04:17:26;;;;;;;30.65;29.08;;;;;;;;;;5073532;28;20035;-68
2023/07/29 04:19:52;;;;;;;31.77;30.10;;;;;;;;;;5073892;28;20028;-69
2023/07/29 04:22:17;;;;;;;34.95;33.15;;;;;;;;;;5072151;28;20131;-69
2023/07/29 04:24:42;;;;;;;32.38;30.67;;;;;;;;;;5076394;28;20032;-68
2023/07/29 04:27:08;;;;;;;32.17;30.45;;;;;;;;;;5077281;28;20136;-69
2023/07/29 04:29:35;;;;;;;32.83;31.13;;;;;;;;;;5072777;28;20032;-68
2023/07/29 04:32:03;;;;;;;33.15;31.45;;;;;;;;;;5073604;28;20119;-68
2023/07/29 04:34:28;;;;;;;30.85;29.23;;;;;;;;;;5073179;28;20024;-68
2023/07/29 04:36:54;;;;;;;37.13;35.13;;;;;;;;;;5076275;28;20449;-69
2023/07/29 04:39:19;;;;;;;33.80;32.03;;;;;;;;;;5075744;28;20501;-69
2023/07/29 04:41:45;;;;;;;36.45;34.55;;;;;;;;;;5081019;28;20040;-70
2023/07/29 04:44:10;;;;;;;34.58;32.78;;;;;;;;;;5076360;28;20024;-68
2023/07/29 04:46:36;;;;;;;34.88;32.97;;;;;;;;;;5076997;28;20036;-69
2023/07/29 04:49:02;;;;;;;39.13;37.03;;;;;;;;;;5079161;28;20040;-69
2023/07/29 04:51:27;;;;;;;36.28;34.40;;;;;;;;;;5080634;28;20074;-69
2023/07/29 04:53:53;;;;;;;40.00;37.97;;;;;;;;;;5078461;28;20032;-68
2023/07/29 04:56:18;;;;;;;41.90;39.70;;;;;;;;;;5080706;28;20043;-69
2023/07/29 04:58:44;;;;;;;47.35;44.95;;;;;;;;;;5081342;28;20464;-68
2023/07/29 05:01:09;;;;;;;46.22;43.85;;;;;;;;;;5078124;28;20035;-68
2023/07/29 05:03:35;;;;;;;51.92;49.30;;;;;;;;;;5079378;28;20032;-68
2023/07/29 05:06:00;;;;;;;51.95;49.28;;;;;;;;;;5075466;28;20083;-68
2023/07/29 05:08:27;;;;;;;48.47;45.88;;;;;;;;;;5080190;28;20075;-68
2023/07/29 05:10:53;;;;;;;53.50;50.60;;;;;;;;;;5077977;28;20577;-67
2023/07/29 05:13:20;;;;;;;50.38;47.83;;;;;;;;;;5077479;28;20048;-68
2023/07/29 05:15:46;;;;;;;58.35;55.40;;;;;;;;;;5079128;28;20072;-68
2023/07/29 05:18:12;;;;;;;56.05;53.22;;;;;;;;;;5080431;28;20028;-68
2023/07/29 05:20:37;;;;;;;55.67;52.75;;;;;;;;;;5076553;28;20039;-67
2023/07/29 05:23:02;;;;;;;59.83;56.80;;;;;;;;;;5076403;28;20028;-67
2023/07/29 05:25:29;;;;;;;56.67;53.80;;;;;;;;;;5078523;28;20152;-68
2023/07/29 05:27:54;;;;;;;60.78;57.72;;;;;;;;;;5078990;28;20032;-68
2023/07/29 05:30:20;;;;;;;57.00;54.05;;;;;;;;;;5077397;28;20047;-68
2023/07/29 05:32:45;;;;;;;72.93;69.30;;;;;;;;;;5078850;28;20037;-68
2023/07/29 05:35:10;;;;;;;63.58;60.38;;;;;;;;;;5078391;28;20085;-68
2023/07/29 05:37:42;;;;;;;58.00;55.10;;;;;;;;;;5077646;28;20523;-68
2023/07/29 05:40:08;;;;;;;68.25;64.85;;;;;;;;;;5076787;28;20309;-68
2023/07/29 05:42:34;;;;;;;65.43;62.05;;;;;;;;;;5079189;28;20037;-68
2023/07/29 05:44:59;;;;;;;63.13;59.95;;;;;;;;;;5077097;28;20055;-68
2023/07/29 05:47:25;;;;;;;61.28;58.17;;;;;;;;;;5077323;28;20039;-68
2023/07/29 05:49:50;;;;;;;65.97;62.67;;;;;;;;;;5082995;28;20050;-67
2023/07/29 05:52:16;;;;;;;60.85;57.78;;;;;;;;;;5077263;28;20028;-68
2023/07/29 05:54:42;;;;;;;65.40;61.65;;;;;;;;;;5079771;28;20036;-68
2023/07/29 05:57:09;;;;;;;61.92;58.80;;;;;;;;;;5078792;28;20036;-68
2023/07/29 05:59:34;;;;;;;64.63;61.33;;;;;;;;;;5076823;28;20123;-68
2023/07/29 06:02:00;;;;;;;64.72;61.42;;;;;;;;;;5075683;28;20388;-69
2023/07/29 06:04:28;;;;;;;63.42;60.22;;;;;;;;;;5079327;28;20397;-68
2023/07/29 06:06:55;;;;;;;51.65;49.00;;;;;;;;;;5084297;28;20153;-69
2023/07/29 06:09:21;;;;;;;50.83;48.22;;;;;;;;;;5076560;28;20044;-68
2023/07/29 06:11:46;;;;;;;49.58;47.03;;;;;;;;;;5077560;28;20564;-68
2023/07/29 06:14:12;;;;;;;55.95;53.10;;;;;;;;;;5075747;28;20516;-69
2023/07/29 06:16:37;;;;;;;49.33;46.83;;;;;;;;;;5077019;28;20737;-69
2023/07/29 06:19:02;;;;;;;51.85;49.10;;;;;;;;;;5078426;28;20027;-73
2023/07/29 06:21:28;;;;;;;45.50;42.38;;;;;;;;;;5076129;28;20036;-74
2023/07/29 06:23:53;;;;;;;50.58;47.97;;;;;;;;;;5076198;28;20048;-73
2023/07/29 06:26:18;;;;;;;47.63;45.20;;;;;;;;;;5073776;28;20089;-73
2023/07/29 06:28:44;;;;;;;43.53;41.33;;;;;;;;;;5076705;28;20028;-73
2023/07/29 06:31:09;;;;;;;49.97;47.42;;;;;;;;;;5075689;28;20031;-73
2023/07/29 06:33:35;;;;;;;43.95;41.70;;;;;;;;;;5080817;28;20339;-68
2023/07/29 06:36:00;;;;;;;43.83;41.58;;;;;;;;;;5074283;28;20263;-68
2023/07/29 06:38:25;;;;;;;41.42;39.33;;;;;;;;;;5075683;28;20097;-69
2023/07/29 06:40:51;;;;;;;43.58;41.35;;;;;;;;;;5073627;28;20363;-68
2023/07/29 06:43:16;;;;;;;41.72;39.63;;;;;;;;;;5078271;28;20040;-69
2023/07/29 06:45:43;;;;;;;49.03;46.53;;;;;;;;;;5076354;28;20037;-69
2023/07/29 06:48:08;;;;;;;54.22;51.42;;;;;;;;;;5076064;28;20527;-68
2023/07/29 06:50:34;;;;;;;53.65;50.92;;;;;;;;;;5077282;28;20227;-68
2023/07/29 06:52:59;;;;;;;51.58;48.95;;;;;;;;;;5075824;28;20035;-71
2023/07/29 06:55:25;;;;;;;52.53;49.80;;;;;;;;;;5074930;28;20486;-69
2023/07/29 06:57:53;;;;;;;52.83;49.92;;;;;;;;;;5077951;28;20374;-68
2023/07/29 07:00:19;;;;;;;49.13;46.60;;;;;;;;;;5074962;28;20047;-70
2023/07/29 07:02:44;;;;;;;53.83;51.03;;;;;;;;;;5077648;28;20438;-69
2023/07/29 07:05:09;;;;;;;46.47;44.08;;;;;;;;;;5074584;28;20469;-69
2023/07/29 07:07:35;;;;;;;48.20;45.70;;;;;;;;;;5083181;28;20434;-69
2023/07/29 07:10:00;;;;;;;45.85;43.35;;;;;;;;;;5078396;28;20032;-70
2023/07/29 07:12:26;;;;;;;45.17;42.88;;;;;;;;;;5074796;28;20036;-71
2023/07/29 07:14:51;;;;;;;47.83;45.40;;;;;;;;;;5077781;28;20071;-70
2023/07/29 07:17:17;;;;;;;41.60;39.47;;;;;;;;;;5072795;28;20035;-70
2023/07/29 07:19:43;;;;;;;40.83;38.72;;;;;;;;;;5076048;28;20035;-70
2023/07/29 07:22:08;;;;;;;44.17;41.90;;;;;;;;;;5077436;28;20085;-70
2023/07/29 07:24:36;;;;;;;34.15;32.35;;;;;;;;;;5079444;28;20216;-72
2023/07/29 07:27:02;;;;;;;39.20;37.20;;;;;;;;;;5075753;28;20468;-70
2023/07/29 07:29:28;;;;;;;39.67;37.58;;;;;;;;;;5076593;28;20225;-71
2023/07/29 07:31:54;;;;;;;39.08;37.08;;;;;;;;;;5077135;28;20028;-77
2023/07/29 07:34:22;;;;;;;36.80;34.90;;;;;;;;;;5075554;28;20450;-71
2023/07/29 07:36:49;;;;;;;34.60;32.80;;;;;;;;;;5074941;28;20040;-71
2023/07/29 07:39:14;;;;;;;41.67;39.53;;;;;;;;;;5074900;28;20104;-71
2023/07/29 07:41:40;;;;;;;42.15;40.00;;;;;;;;;;5078761;28;20361;-72
2023/07/29 07:44:06;;;;;;;46.42;43.92;;;;;;;;;;5077297;28;20061;-71
2023/07/29 07:46:31;;;;;;;46.03;43.65;;;;;;;;;;5075880;28;20040;-71
2023/07/29 07:48:56;;;;;;;48.83;46.17;;;;;;;;;;5076900;28;20021;-71
2023/07/29 07:51:25;;;;;;;54.90;52.10;;;;;;;;;;5074323;28;20024;-74
2023/07/29 07:53:53;;;;;;;47.10;44.60;;;;;;;;;;5075936;28;20032;-75
2023/07/29 07:56:18;;;;;;;56.65;53.75;;;;;;;;;;5076995;28;20046;-74
2023/07/29 07:58:44;;;;;;;55.30;52.47;;;;;;;;;;5077316;28;20036;-74
2023/07/29 08:01:09;;;;;;;53.25;50.53;;;;;;;;;;5074996;28;20056;-75
2023/07/29 08:03:35;;;;;;;64.93;61.67;;;;;;;;;;5077567;28;20041;-75
2023/07/29 08:06:01;;;;;;;62.47;59.33;;;;;;;;;;5074062;28;20032;-75
2023/07/29 08:08:27;;;;;;;55.00;52.20;;;;;;;;;;5075828;28;20029;-74
2023/07/29 08:10:54;;;;;;;48.88;46.42;;;;;;;;;;5076313;28;20331;-75
2023/07/29 08:13:23;;;;;;;49.55;47.05;;;;;;;;;;5076651;28;20096;-75
2023/07/29 08:15:50;;;;;;;47.75;45.30;;;;;;;;;;5082330;28;20389;-75
2023/07/29 08:18:16;;;;;;;50.88;48.30;;;;;;;;;;5080688;28;20074;-75
2023/07/29 08:20:51;;;;;;;45.05;42.75;;;;;;;;;;5080804;28;20059;-75
2023/07/29 08:23:16;;;;;;;49.17;46.63;;;;;;;;;;5083184;28;20485;-75
2023/07/29 08:25:41;;;;;;;39.65;37.55;;;;;;;;;;5081214;28;20060;-75
2023/07/29 08:28:07;;;;;;;39.15;37.17;;;;;;;;;;5069676;28;20031;-75
2023/07/29 08:30:32;;;;;;;41.50;39.38;;;;;;;;;;5079010;28;20028;-74
2023/07/29 08:32:57;;;;;;;39.70;37.67;;;;;;;;;;5077911;28;20436;-75
2023/07/29 08:35:23;;;;;;;68.47;65.13;;;;;;;;;;5078187;28;20123;-75
2023/07/29 08:37:48;;;;;;;83.65;79.53;;;;;;;;;;5080060;28;20090;-77
2023/07/29 08:40:14;;;;;;;90.95;86.47;;;;;;;;;;5080316;28;20028;-75
2023/07/29 08:42:42;;;;;;;88.97;84.63;;;;;;;;;;5082123;28;20029;-76
2023/07/29 08:45:08;;;;;;;101.50;96.55;;;;;;;;;;5078236;28;20358;-78
2023/07/29 08:47:34;;;;;;;99.03;94.18;;;;;;;;;;5078799;28;20040;-74
2023/07/29 08:50:02;;;;;;;127.93;121.72;;;;;;;;;;5078105;28;20032;-75
2023/07/29 08:52:29;;;;;;;132.82;126.35;;;;;;;;;;5080101;28;20028;-75
2023/07/29 08:54:55;;;;;;;122.70;116.72;;;;;;;;;;5077700;28;20080;-75
2023/07/29 08:57:22;;;;;;;142.23;135.27;;;;;;;;;;5063955;28;20432;-76
2023/07/29 08:59:47;;;;;;;139.90;133.02;;;;;;;;;;5085575;28;20122;-77
2023/07/29 09:02:13;;;;;;;115.68;110.00;;;;;;;;;;5077082;28;20143;-76
2023/07/29 09:04:38;;;;;;;130.85;124.40;;;;;;;;;;5076529;28;20405;-77
2023/07/29 09:07:06;;;;;;;124.60;118.45;;;;;;;;;;5080047;28;20322;-76
2023/07/29 09:09:31;;;;;;;118.30;112.47;;;;;;;;;;5076954;28;20028;-75
2023/07/29 09:11:57;;;;;;;126.18;119.97;;;;;;;;;;5076616;28;20375;-75
2023/07/29 09:14:24;;;;;;;127.22;121.00;;;;;;;;;;5077923;28;20032;-75
2023/07/29 09:16:49;;;;;;;125.13;118.95;;;;;;;;;;5080211;28;20474;-77
2023/07/29 09:19:15;;;;;;;142.07;135.20;;;;;;;;;;5077391;28;20037;-77
2023/07/29 09:21:41;;;;;;;129.73;123.38;;;;;;;;;;5075353;28;20141;-74
2023/07/29 09:24:07;;;;;;;148.55;141.27;;;;;;;;;;5078072;28;20056;-76
2023/07/29 09:26:33;;;;;;;152.43;144.98;;;;;;;;;;5077316;28;20758;-75
2023/07/29 09:28:59;;;;;;;170.60;162.35;;;;;;;;;;5077128;28;20088;-76
2023/07/29 09:31:26;;;;;;;179.30;170.57;;;;;;;;;;5077907;28;20043;-76
2023/07/29 09:34:00;;;;;;;188.68;179.43;;;;;;;;;;5079882;28;20063;-79
2023/07/29 09:36:27;;;;;;;212.32;202.02;;;;;;;;;;5079496;28;20032;-79
2023/07/29 09:38:54;;;;;;;207.45;197.38;;;;;;;;;;5078015;28;20036;-77
2023/07/29 09:41:22;;;;;;;218.68;208.05;;;;;;;;;;5074761;28;20036;-78
2023/07/29 09:43:47;;;;;;;217.18;206.60;;;;;;;;;;5081065;28;20088;-76
2023/07/29 09:46:13;;;;;;;189.57;180.32;;;;;;;;;;5077679;28;20438;-78
2023/07/29 09:48:38;;;;;;;181.23;172.35;;;;;;;;;;5077427;28;20075;-75
2023/07/29 09:51:14;;;;;;;155.45;147.70;;;;;;;;;;5080561;28;20036;-79
2023/07/29 09:53:47;;;;;;;160.73;152.80;;;;;;;;;;5078366;28;20062;-77
2023/07/29 09:56:14;;;;;;;141.70;134.75;;;;;;;;;;5085834;28;20040;-81
2023/07/29 09:58:39;;;;;;;153.57;146.02;;;;;;;;;;5076358;28;20059;-79
2023/07/29 10:01:06;;;;;;;182.77;173.90;;;;;;;;;;5074828;28;20068;-83
2023/07/29 10:03:33;;;;;;;172.25;163.80;;;;;;;;;;5078779;28;20072;-77
2023/07/29 10:06:03;;;;;;;220.98;210.32;;;;;;;;;;5075208;28;20047;-78
2023/07/29 10:08:32;;;;;;;211.93;201.68;;;;;;;;;;5076800;28;20031;-81
2023/07/29 10:11:06;;;;;;;219.13;208.48;;;;;;;;;;5075691;28;20028;-78
2023/07/29 10:13:33;;;;;;;214.60;204.20;;;;;;;;;;5078906;28;20650;-78
2023/07/29 10:15:59;;;;;;;265.35;252.38;;;;;;;;;;5077497;28;20571;-77
2023/07/29 10:18:24;;;;;;;278.45;264.95;;;;;;;;;;5075588;28;20035;-74
2023/07/29 10:20:51;;;;;;;233.27;221.98;;;;;;;;;;5076270;28;20415;-75
2023/07/29 10:23:21;;;;;;;314.10;298.52;;;;;;;;;;5079080;28;20349;-77
2023/07/29 10:25:58;;;;;;;308.70;293.38;;;;;;;;;;5077968;28;20028;-76
2023/07/29 10:28:25;;;;;;;339.23;322.30;;;;;;;;;;5076356;28;20069;-76
2023/07/29 10:30:51;;;;;;;309.90;294.52;;;;;;;;;;5075871;28;20328;-73
2023/07/29 10:33:17;;;;;;;359.65;341.52;;;;;;;;;;5076924;28;20503;-76
2023/07/29 10:35:42;;;;;;;250.20;237.88;;;;;;;;;;5075780;28;20032;-73
2023/07/29 10:38:08;;;;;;;280.48;266.58;;;;;;;;;;5078002;28;20134;-74
2023/07/29 10:40:45;;;;;;;289.02;274.80;;;;;;;;;;5076942;28;20055;-77
2023/07/29 10:43:14;;;;;;;249.43;237.23;;;;;;;;;;5074312;28;20043;-69
2023/07/29 10:45:41;;;;;;;280.60;266.83;;;;;;;;;;5078070;28;20252;-69
2023/07/29 10:48:32;;;;;;;310.38;294.98;;;;;;;;;;5075720;28;20068;-70
2023/07/29 10:51:29;;;;;;;90.72;86.20;;;;;;;;;;5076978;28;20020;-70
2023/07/29 10:53:57;;;;;;;113.22;107.65;;;;;;;;;;5078185;28;20036;-70
2023/07/29 10:56:31;;;;;;;177.30;168.57;;;;;;;;;;5060051;28;20028;-67
2023/07/29 10:59:33;;;;;;;69.28;65.82;;;;;;;;;;5084598;28;20100;-77
2023/07/29 11:01:59;;;;;;;212.50;202.10;;;;;;;;;;5076637;28;20035;-76
2023/07/29 11:04:27;;;;;;;51.97;49.38;;;;;;;;;;5075572;28;20037;-76
2023/07/29 11:07:04;;;;;;;76.18;72.40;;;;;;;;;;5077318;28;20044;-74
2023/07/29 11:09:48;;;;;;;196.23;186.57;;;;;;;;;;5073491;28;20111;-76
2023/07/29 11:12:48;;;;;;;171.60;162.98;;;;;;;;;;5076903;28;20539;-76
2023/07/29 11:15:29;;;;;;;213.00;202.55;;;;;;;;;;5073039;28;20044;-78
2023/07/29 11:17:59;;;;;;;312.58;297.02;;;;;;;;;;5075187;28;20037;-72
2023/07/29 11:20:27;;;;;;;339.48;322.42;;;;;;;;;;5076185;28;20036;-72
2023/07/29 11:22:54;;;;;;;455.30;430.83;;;;;;;;;;5077727;28;20350;-73
2023/07/29 11:25:21;;;;;;;445.50;421.95;;;;;;;;;;5075586;28;20281;-73
2023/07/29 11:27:46;;;;;;;440.23;417.02;;;;;;;;;;5072030;28;20408;-75
2023/07/29 11:30:13;;;;;;;415.88;394.20;;;;;;;;;;5075924;28;20028;-76
2023/07/29 11:32:40;;;;;;;398.65;378.30;;;;;;;;;;5076929;28;20033;-76
2023/07/29 11:35:08;;;;;;;373.25;354.33;;;;;;;;;;5076354;28;20099;-75
2023/07/29 11:37:37;;;;;;;369.48;350.73;;;;;;;;;;5074749;28;20031;-75
2023/07/29 11:40:04;;;;;;;361.48;343.30;;;;;;;;;;5075090;28;20032;-75
2023/07/29 11:42:33;;;;;;;361.23;342.95;;;;;;;;;;5075462;28;20127;-75
2023/07/29 11:44:59;;;;;;;373.67;353.33;;;;;;;;;;5073766;28;20035;-76
2023/07/29 11:47:25;;;;;;;379.70;360.30;;;;;;;;;;5083205;28;20032;-75
2023/07/29 11:49:51;;;;;;;411.42;390.13;;;;;;;;;;5082776;28;20074;-75
2023/07/29 11:52:19;;;;;;;420.20;398.50;;;;;;;;;;5082222;28;20582;-75
2023/07/29 11:54:46;;;;;;;439.92;416.85;;;;;;;;;;5082372;28;20021;-76
2023/07/29 11:57:13;;;;;;;333.52;316.75;;;;;;;;;;5083209;28;20054;-76
2023/07/29 11:59:39;;;;;;;467.42;442.27;;;;;;;;;;5083357;28;20028;-76
2023/07/29 12:02:08;;;;;;;475.65;449.73;;;;;;;;;;5082812;28;20538;-76
2023/07/29 12:04:34;;;;;;;336.55;319.52;;;;;;;;;;5079308;28;20313;-76
2023/07/29 12:07:00;;;;;;;299.92;285.08;;;;;;;;;;5084456;28;20461;-76
2023/07/29 12:09:26;;;;;;;380.02;360.58;;;;;;;;;;5083286;28;20040;-77
2023/07/29 12:11:52;;;;;;;464.45;439.40;;;;;;;;;;5087840;28;20033;-77
2023/07/29 12:14:18;;;;;;;250.32;238.05;;;;;;;;;;5080655;28;20098;-76
2023/07/29 12:16:44;;;;;;;280.58;266.58;;;;;;;;;;5081987;28;20040;-76
2023/07/29 12:19:13;;;;;;;334.42;317.33;;;;;;;;;;5082263;28;20104;-75
2023/07/29 12:21:41;;;;;;;388.37;368.20;;;;;;;;;;5088045;28;20123;-75
2023/07/29 12:24:06;;;;;;;408.45;387.10;;;;;;;;;;5086209;28;20461;-75
2023/07/29 12:26:32;;;;;;;64.13;60.92;;;;;;;;;;5083020;28;20051;-77
2023/07/29 12:28:57;;;;;;;60.25;57.25;;;;;;;;;;5081512;28;20032;-77
2023/07/29 12:31:32;;;;;;;34.50;32.72;;;;;;;;;;5080088;28;20135;-68
2023/07/29 12:33:57;;;;;;;16.50;15.57;;;;;;;;;;5083412;28;20036;-69
2023/07/29 12:36:39;;;;;;;24.33;23.02;;;;;;;;;;5081254;28;20417;-69
2023/07/29 12:39:05;;;;;;;38.35;36.35;;;;;;;;;;5085171;28;20039;-71
2023/07/29 12:41:30;;;;;;;18.58;17.58;;;;;;;;;;5082318;28;20020;-69
2023/07/29 12:43:55;;;;;;;22.90;21.70;;;;;;;;;;5080738;28;20455;-69
2023/07/29 12:46:21;;;;;;;39.83;37.80;;;;;;;;;;5081709;28;20166;-69
2023/07/29 12:48:46;;;;;;;33.88;32.08;;;;;;;;;;5083083;28;20063;-69
2023/07/29 12:51:11;;;;;;;21.05;19.90;;;;;;;;;;5084804;28;20063;-69
2023/07/29 12:53:37;;;;;;;67.05;63.72;;;;;;;;;;5080458;28;20027;-68
2023/07/29 12:56:02;;;;;;;101.68;96.68;;;;;;;;;;5082625;28;20043;-68
2023/07/29 12:58:28;;;;;;;61.22;58.13;;;;;;;;;;5080075;28;20032;-70
2023/07/29 13:00:54;;;;;;;68.00;64.60;;;;;;;;;;5080290;28;20039;-67
2023/07/29 13:03:19;;;;;;;72.28;68.70;;;;;;;;;;5077517;28;20111;-70
2023/07/29 13:05:44;;;;;;;113.65;108.03;;;;;;;;;;5076680;28;20039;-70
2023/07/29 13:08:10;;;;;;;115.07;109.20;;;;;;;;;;5077752;28;20150;-68
2023/07/29 13:10:36;;;;;;;114.57;108.95;;;;;;;;;;5076212;28;20420;-73
2023/07/29 13:13:01;;;;;;;95.32;90.63;;;;;;;;;;5078396;28;20119;-70
2023/07/29 13:15:26;;;;;;;109.78;104.38;;;;;;;;;;5081294;28;20063;-70
2023/07/29 13:17:52;;;;;;;119.25;113.40;;;;;;;;;;5079063;28;20068;-76
2023/07/29 13:20:17;;;;;;;72.35;68.75;;;;;;;;;;5077398;28;20024;-71
2023/07/29 13:22:42;;;;;;;77.05;73.25;;;;;;;;;;5077754;28;20073;-72
2023/07/29 13:25:08;;;;;;;66.95;63.65;;;;;;;;;;5077795;28;20442;-70
2023/07/29 13:27:33;;;;;;;104.78;99.63;;;;;;;;;;5080929;28;20067;-73
2023/07/29 13:29:59;;;;;;;96.57;91.80;;;;;;;;;;5080960;28;20028;-72
2023/07/29 13:32:24;;;;;;;73.65;70.00;;;;;;;;;;5077441;28;20055;-72
2023/07/29 13:34:49;;;;;;;58.97;56.03;;;;;;;;;;5078065;28;20024;-71
2023/07/29 13:37:15;;;;;;;81.60;77.55;;;;;;;;;;5079451;28;20138;-70
2023/07/29 13:39:40;;;;;;;58.33;55.40;;;;;;;;;;5074433;28;20476;-71
2023/07/29 13:42:06;;;;;;;60.45;57.42;;;;;;;;;;5077388;28;20024;-71
2023/07/29 13:44:31;;;;;;;80.60;76.63;;;;;;;;;;5080212;28;20454;-69
2023/07/29 13:46:56;;;;;;;66.50;63.20;;;;;;;;;;5078804;28;20032;-71
2023/07/29 13:49:22;;;;;;;82.22;78.18;;;;;;;;;;5078606;28;20104;-71
2023/07/29 13:51:47;;;;;;;76.65;72.85;;;;;;;;;;5078446;28;20051;-70
2023/07/29 13:54:13;;;;;;;78.78;74.90;;;;;;;;;;5078501;28;20039;-71
2023/07/29 13:56:38;;;;;;;54.05;51.25;;;;;;;;;;5076750;28;20029;-71
2023/07/29 13:59:03;;;;;;;84.13;79.93;;;;;;;;;;5079587;28;20036;-72
2023/07/29 14:01:29;;;;;;;78.63;74.70;;;;;;;;;;5075971;28;20036;-72
2023/07/29 14:03:54;;;;;;;69.35;65.93;;;;;;;;;;5081932;28;20096;-71
2023/07/29 14:06:19;;;;;;;40.35;38.05;;;;;;;;;;5076727;28;20039;-72
2023/07/29 14:08:45;;;;;;;49.42;46.92;;;;;;;;;;5078153;28;20051;-71